createdAt,value
2018-11-11T00:00:44.971Z,79.14
2018-11-11T00:03:13.123Z,79.15
2018-11-11T00:05:41.292Z,78.86
2018-11-11T00:08:09.484Z,78.92
2018-11-11T00:10:37.667Z,78.80
2018-11-11T00:13:05.987Z,78.74
2018-11-11T00:15:34.195Z,78.59
2018-11-11T00:18:02.372Z,78.57
2018-11-11T00:20:30.552Z,78.71
2018-11-11T00:22:58.714Z,78.67
2018-11-11T00:25:26.881Z,78.90
2018-11-11T00:27:55.043Z,78.83
2018-11-11T00:30:23.216Z,78.73
2018-11-11T00:32:51.388Z,78.68
2018-11-11T00:35:19.570Z,78.79
2018-11-11T00:37:47.747Z,79.00
2018-11-11T00:40:16.469Z,79.14
2018-11-11T00:42:45.171Z,79.07
2018-11-11T00:45:13.946Z,79.21
2018-11-11T00:47:42.231Z,79.49
2018-11-11T01:18:41.826Z,78.80
2018-11-11T01:21:09.986Z,78.81
2018-11-11T01:23:38.162Z,78.51
2018-11-11T01:26:06.483Z,78.22
2018-11-11T01:28:34.673Z,78.06
2018-11-11T01:31:02.964Z,78.08
2018-11-11T01:33:31.152Z,77.80
2018-11-11T01:35:59.307Z,77.34
2018-11-11T01:38:27.508Z,77.67
2018-11-11T01:40:55.659Z,77.64
2018-11-11T01:43:23.837Z,77.49
2018-11-11T01:45:52.008Z,77.66
2018-11-11T01:48:20.167Z,77.28
2018-11-11T01:50:48.334Z,77.60
2018-11-11T01:53:16.563Z,77.40
2018-11-11T01:55:44.791Z,77.01
2018-11-11T01:58:13.068Z,77.24
2018-11-11T02:00:42.664Z,77.24
2018-11-11T02:03:10.816Z,77.18
2018-11-11T02:05:38.985Z,77.09
2018-11-11T02:08:07.183Z,76.11
2018-11-11T02:10:35.335Z,76.26
2018-11-11T02:13:03.504Z,75.78
2018-11-11T02:15:31.671Z,75.86
2018-11-11T02:17:59.826Z,75.90
2018-11-11T02:20:27.993Z,75.79
2018-11-11T02:22:56.163Z,75.26
2018-11-11T02:25:24.324Z,74.97
2018-11-11T02:27:52.490Z,75.02
2018-11-11T02:30:21.543Z,74.99
2018-11-11T02:32:49.832Z,75.03
2018-11-11T02:35:18.111Z,75.26
2018-11-11T02:37:46.360Z,74.94
2018-11-11T02:40:16.714Z,75.17
2018-11-11T02:42:45.291Z,74.72
2018-11-11T02:45:14.474Z,74.86
2018-11-11T02:47:42.643Z,74.81
2018-11-11T02:50:12.385Z,74.76
2018-11-11T02:52:41.351Z,74.24
2018-11-11T02:55:10.172Z,74.69
2018-11-11T02:57:38.929Z,73.69
2018-11-11T03:00:10.386Z,74.50
2018-11-11T03:02:38.655Z,74.51
2018-11-11T03:05:07.969Z,74.29
2018-11-11T03:07:36.201Z,74.33
2018-11-11T03:10:04.393Z,73.67
2018-11-11T03:12:32.547Z,73.75
2018-11-11T03:15:00.730Z,73.49
2018-11-11T03:17:28.891Z,73.73
2018-11-11T03:19:57.213Z,73.48
2018-11-11T03:22:25.372Z,73.40
2018-11-11T03:24:53.532Z,73.15
2018-11-11T03:27:21.914Z,73.29
2018-11-11T03:29:50.074Z,72.76
2018-11-11T03:32:18.259Z,72.41
2018-11-11T03:34:46.439Z,72.69
2018-11-11T03:37:14.601Z,73.11
2018-11-11T03:39:42.755Z,72.79
2018-11-11T03:42:10.924Z,72.99
2018-11-11T03:44:39.095Z,72.80
2018-11-11T03:47:07.297Z,72.82
2018-11-11T03:49:35.469Z,72.79
2018-11-11T03:52:03.675Z,72.84
2018-11-11T03:54:31.832Z,72.66
2018-11-11T03:56:59.986Z,72.94
2018-11-11T03:59:28.171Z,73.10
2018-11-11T04:01:56.335Z,73.10
2018-11-11T04:04:24.499Z,73.46
2018-11-11T04:06:52.658Z,73.39
2018-11-11T04:09:20.814Z,73.39
2018-11-11T04:11:48.992Z,73.84
2018-11-11T04:14:17.174Z,74.02
2018-11-11T04:16:45.319Z,74.13
2018-11-11T04:19:13.476Z,74.28
2018-11-11T04:21:41.656Z,73.68
2018-11-11T04:24:09.820Z,73.94
2018-11-11T04:26:37.980Z,73.83
2018-11-11T04:29:06.149Z,74.15
2018-11-11T04:31:34.323Z,74.10
2018-11-11T04:34:02.491Z,73.89
2018-11-11T04:36:30.650Z,73.63
2018-11-11T04:38:58.858Z,73.72
2018-11-11T04:41:27.167Z,73.52
2018-11-11T04:43:55.332Z,73.70
2018-11-11T04:46:23.538Z,73.61
2018-11-11T04:48:51.684Z,73.66
2018-11-11T04:51:19.859Z,73.10
2018-11-11T04:53:48.024Z,73.24
2018-11-11T04:56:16.192Z,73.19
2018-11-11T04:58:44.359Z,72.75
2018-11-11T05:01:12.561Z,72.71
2018-11-11T05:03:40.679Z,72.80
2018-11-11T05:06:08.847Z,72.82
2018-11-11T05:08:37.025Z,72.29
2018-11-11T05:11:05.300Z,72.16
2018-11-11T05:13:33.468Z,72.24
2018-11-11T05:16:04.284Z,72.13
2018-11-11T05:18:32.426Z,71.95
2018-11-11T05:21:00.596Z,71.43
2018-11-11T05:23:28.751Z,71.41
2018-11-11T05:25:56.916Z,71.75
2018-11-11T05:28:25.067Z,71.76
2018-11-11T05:30:53.266Z,71.31
2018-11-11T05:33:21.429Z,71.54
2018-11-11T05:35:49.592Z,71.25
2018-11-11T05:38:17.754Z,71.66
2018-11-11T05:40:45.911Z,71.42
2018-11-11T05:43:14.085Z,71.58
2018-11-11T05:45:42.235Z,71.59
2018-11-11T05:48:10.416Z,71.69
2018-11-11T05:50:38.589Z,71.49
2018-11-11T05:53:06.771Z,70.98
2018-11-11T05:55:34.938Z,71.46
2018-11-11T05:58:03.100Z,71.22
2018-11-11T06:00:31.283Z,71.10
2018-11-11T06:02:59.456Z,70.92
2018-11-11T06:05:27.612Z,70.58
2018-11-11T06:07:55.775Z,70.56
2018-11-11T06:10:23.946Z,70.47
2018-11-11T06:12:52.111Z,70.68
2018-11-11T06:15:20.274Z,70.85
2018-11-11T06:17:48.423Z,70.72
2018-11-11T06:20:17.209Z,70.85
2018-11-11T06:22:45.342Z,70.89
2018-11-11T06:25:13.520Z,71.16
2018-11-11T06:27:41.941Z,70.21
2018-11-11T06:30:10.719Z,70.47
2018-11-11T06:32:38.915Z,70.11
2018-11-11T06:35:07.310Z,70.12
2018-11-11T06:37:35.483Z,70.05
2018-11-11T06:40:03.702Z,69.50
2018-11-11T06:42:31.893Z,69.97
2018-11-11T06:45:00.060Z,69.82
2018-11-11T06:47:28.298Z,70.07
2018-11-11T06:49:56.593Z,69.92
2018-11-11T06:52:24.792Z,70.18
2018-11-11T06:54:52.967Z,70.33
2018-11-11T06:57:21.236Z,70.09
2018-11-11T06:59:49.484Z,68.72
2018-11-11T07:02:17.695Z,68.99
2018-11-11T07:04:45.920Z,69.31
2018-11-11T07:07:14.084Z,69.37
2018-11-11T07:09:42.245Z,69.23
2018-11-11T07:12:10.390Z,68.51
2018-11-11T07:14:38.559Z,68.79
2018-11-11T07:17:06.881Z,69.22
2018-11-11T07:19:35.039Z,69.21
2018-11-11T07:22:03.286Z,68.85
2018-11-11T07:24:31.476Z,68.60
2018-11-11T07:26:59.730Z,69.28
2018-11-11T07:29:28.370Z,69.00
2018-11-11T07:31:56.540Z,68.46
2018-11-11T07:34:24.712Z,68.06
2018-11-11T07:36:52.880Z,68.08
2018-11-11T07:39:21.086Z,67.83
2018-11-11T07:41:49.267Z,67.88
2018-11-11T07:44:17.444Z,67.96
2018-11-11T07:46:45.608Z,68.01
2018-11-11T07:49:13.929Z,67.46
2018-11-11T07:51:42.096Z,67.42
2018-11-11T07:54:10.264Z,67.56
2018-11-11T07:56:38.455Z,66.37
2018-11-11T07:59:06.927Z,67.04
2018-11-11T08:01:35.142Z,66.90
2018-11-11T08:04:03.283Z,67.39
2018-11-11T08:06:31.453Z,67.11
2018-11-11T08:08:59.798Z,67.18
2018-11-11T08:11:39.243Z,66.70
2018-11-11T08:14:07.439Z,67.08
2018-11-11T08:16:35.655Z,66.17
2018-11-11T08:19:03.792Z,66.98
2018-11-11T08:21:31.964Z,66.62
2018-11-11T08:24:00.171Z,66.52
2018-11-11T08:26:28.327Z,66.87
2018-11-11T08:28:56.519Z,66.17
2018-11-11T08:31:24.708Z,66.61
2018-11-11T08:33:52.891Z,66.43
2018-11-11T08:36:21.058Z,66.77
2018-11-11T08:38:49.219Z,66.25
2018-11-11T08:41:17.380Z,66.16
2018-11-11T08:43:45.546Z,65.67
2018-11-11T08:46:13.739Z,65.06
2018-11-11T08:48:41.912Z,64.14
2018-11-11T08:51:10.100Z,63.39
2018-11-11T08:53:38.339Z,63.02
2018-11-11T08:56:06.626Z,62.30
2018-11-11T08:58:34.899Z,61.16
2018-11-11T09:01:03.115Z,60.37
2018-11-11T09:03:31.379Z,61.58
2018-11-11T09:05:59.760Z,61.80
2018-11-11T09:08:28.111Z,61.82
2018-11-11T09:10:56.339Z,60.67
2018-11-11T09:13:24.572Z,59.80
2018-11-11T09:15:52.783Z,60.28
2018-11-11T09:18:20.995Z,60.89
2018-11-11T09:20:49.291Z,60.92
2018-11-11T09:23:17.505Z,60.18
2018-11-11T09:25:45.766Z,59.90
2018-11-11T09:28:13.991Z,60.39
2018-11-11T09:30:42.206Z,61.40
2018-11-11T09:33:10.402Z,60.23
2018-11-11T09:35:38.588Z,59.94
2018-11-11T09:38:06.793Z,60.59
2018-11-11T09:40:35.000Z,60.90
2018-11-11T09:43:03.188Z,61.02
2018-11-11T09:45:31.351Z,59.32
2018-11-11T09:47:59.538Z,57.13
2018-11-11T09:50:27.683Z,58.23
2018-11-11T09:52:55.907Z,58.43
2018-11-11T09:55:24.275Z,58.43
2018-11-11T09:57:52.589Z,57.99
2018-11-11T10:00:22.104Z,58.46
2018-11-11T10:02:57.918Z,59.27
2018-11-11T10:05:31.511Z,59.14
2018-11-11T10:08:15.824Z,58.80
2018-11-11T10:10:51.353Z,59.53
2018-11-11T10:13:24.776Z,59.04
2018-11-11T10:16:01.268Z,59.34
2018-11-11T10:18:37.695Z,58.74
2018-11-11T10:22:09.796Z,59.51
2018-11-11T10:24:45.758Z,59.99
2018-11-11T10:27:51.185Z,59.27
2018-11-11T10:30:37.674Z,59.13
2018-11-11T10:33:35.037Z,59.42
2018-11-11T10:36:12.248Z,60.01
2018-11-11T10:38:45.770Z,59.48
2018-11-11T10:41:20.996Z,59.77
2018-11-11T10:43:52.735Z,58.79
2018-11-11T10:46:24.384Z,59.08
2018-11-11T10:49:07.807Z,59.39
2018-11-11T10:51:36.287Z,58.40
2018-11-11T10:54:04.678Z,58.53
2018-11-11T10:56:32.779Z,58.88
2018-11-11T10:59:00.950Z,58.40
2018-11-11T11:03:42.357Z,58.83
2018-11-11T11:06:10.776Z,58.93
2018-11-11T11:08:43.015Z,58.71
2018-11-11T11:11:11.183Z,58.77
2018-11-11T11:13:39.361Z,57.63
2018-11-11T11:16:07.535Z,58.66
2018-11-11T11:18:35.696Z,58.44
2018-11-11T11:21:03.867Z,58.62
2018-11-11T11:23:32.039Z,58.59
2018-11-11T11:26:00.207Z,58.06
2018-11-11T11:28:28.376Z,58.92
2018-11-11T11:30:56.551Z,59.82
2018-11-11T11:33:24.719Z,59.12
2018-11-11T11:35:52.948Z,58.93
2018-11-11T11:38:21.296Z,60.24
2018-11-11T11:40:49.349Z,58.68
2018-11-11T11:43:17.533Z,58.99
2018-11-11T11:45:45.707Z,59.18
2018-11-11T11:48:13.884Z,58.27
2018-11-11T11:50:42.030Z,57.93
2018-11-11T11:53:10.224Z,58.58
2018-11-11T11:55:38.378Z,58.24
2018-11-11T11:58:21.007Z,58.25
2018-11-11T12:00:49.175Z,59.01
2018-11-11T12:03:17.362Z,58.33
2018-11-11T12:05:46.274Z,57.66
2018-11-11T12:08:14.491Z,57.33
2018-11-11T12:10:42.695Z,58.05
2018-11-11T12:13:11.671Z,57.55
2018-11-11T12:15:40.664Z,56.90
2018-11-11T12:18:08.827Z,57.54
2018-11-11T12:20:37.522Z,57.64
2018-11-11T12:23:06.295Z,57.36
2018-11-11T12:25:34.760Z,58.14
2018-11-11T12:28:02.948Z,58.67
2018-11-11T12:30:31.221Z,58.69
2018-11-11T12:32:59.423Z,59.75
2018-11-11T12:35:27.614Z,59.12
2018-11-11T12:37:55.797Z,58.94
2018-11-11T12:40:24.101Z,59.34
2018-11-11T12:42:52.159Z,59.41
2018-11-11T12:45:20.404Z,59.15
2018-11-11T12:47:48.612Z,59.89
2018-11-11T12:50:16.863Z,59.80
2018-11-11T12:52:44.982Z,59.88
2018-11-11T12:55:13.194Z,59.44
2018-11-11T12:57:41.351Z,59.89
2018-11-11T13:00:12.525Z,59.75
2018-11-11T13:02:40.779Z,60.65
2018-11-11T13:05:09.495Z,61.93
2018-11-11T13:07:37.675Z,61.73
2018-11-11T13:10:08.783Z,62.91
2018-11-11T13:12:37.168Z,62.83
2018-11-11T13:15:06.506Z,63.28
2018-11-11T13:17:34.695Z,62.14
2018-11-11T13:20:02.891Z,62.50
2018-11-11T13:22:31.088Z,62.44
2018-11-11T13:24:59.215Z,63.94
2018-11-11T13:27:27.453Z,63.43
2018-11-11T13:29:55.642Z,64.34
2018-11-11T13:32:23.916Z,64.55
2018-11-11T13:34:52.076Z,65.23
2018-11-11T13:37:20.249Z,65.77
2018-11-11T13:39:48.474Z,66.19
2018-11-11T13:42:16.628Z,66.78
2018-11-11T13:44:44.811Z,67.17
2018-11-11T13:47:12.963Z,68.15
2018-11-11T13:49:41.128Z,68.75
2018-11-11T13:52:09.300Z,69.34
2018-11-11T13:54:37.540Z,70.25
2018-11-11T13:57:07.098Z,70.33
2018-11-11T13:59:35.312Z,70.78
2018-11-11T14:02:03.619Z,71.33
2018-11-11T14:04:31.928Z,72.11
2018-11-11T14:07:00.135Z,72.65
2018-11-11T14:09:28.340Z,73.36
2018-11-11T14:11:56.557Z,73.86
2018-11-11T14:14:24.787Z,74.36
2018-11-11T14:16:53.174Z,74.46
2018-11-11T14:19:21.823Z,75.10
2018-11-11T14:21:49.637Z,75.12
2018-11-11T14:24:17.831Z,75.12
2018-11-11T14:26:46.193Z,75.50
2018-11-11T14:29:14.325Z,75.83
2018-11-11T14:31:43.488Z,75.95
2018-11-11T14:34:11.680Z,76.18
2018-11-11T14:36:39.926Z,76.22
2018-11-11T14:39:10.646Z,76.38
2018-11-11T14:41:39.379Z,76.54
2018-11-11T14:44:08.378Z,76.53
2018-11-11T14:46:36.818Z,76.46
2018-11-11T14:49:05.664Z,76.33
2018-11-11T14:51:33.994Z,76.36
2018-11-11T14:54:02.224Z,76.70
2018-11-11T14:56:30.460Z,76.86
2018-11-11T14:58:59.021Z,76.75
2018-11-11T15:01:27.177Z,77.08
2018-11-11T15:03:55.407Z,77.04
2018-11-11T15:06:23.587Z,76.97
2018-11-11T15:08:51.816Z,77.39
2018-11-11T15:11:19.996Z,77.41
2018-11-11T15:13:48.220Z,77.68
2018-11-11T15:16:16.473Z,77.42
2018-11-11T15:18:44.717Z,77.71
2018-11-11T15:21:12.948Z,77.65
2018-11-11T15:23:41.161Z,77.88
2018-11-11T15:26:09.358Z,77.86
2018-11-11T15:28:37.570Z,77.78
2018-11-11T15:31:05.978Z,77.77
2018-11-11T15:33:34.024Z,77.79
2018-11-11T15:36:02.236Z,77.98
2018-11-11T15:38:30.685Z,78.15
2018-11-11T15:40:58.962Z,78.48
2018-11-11T15:43:27.173Z,78.57
2018-11-11T15:45:55.404Z,78.52
2018-11-11T15:48:23.659Z,78.64
2018-11-11T15:50:51.883Z,78.72
2018-11-11T15:53:20.098Z,78.52
2018-11-11T15:55:48.323Z,78.62
2018-11-11T15:58:16.874Z,78.62
2018-11-11T16:00:45.352Z,78.76
2018-11-11T16:03:13.646Z,78.60
2018-11-11T16:05:43.681Z,78.41
2018-11-11T16:08:11.891Z,78.49
2018-11-11T16:10:40.132Z,78.24
2018-11-11T16:13:09.736Z,77.71
2018-11-11T16:15:39.800Z,77.91
2018-11-11T16:18:10.116Z,78.03
2018-11-11T16:20:38.502Z,77.89
2018-11-11T16:23:07.530Z,78.12
2018-11-11T16:25:36.214Z,77.89
2018-11-11T16:28:04.554Z,77.81
2018-11-11T16:30:34.176Z,77.44
2018-11-11T16:33:02.657Z,77.59
2018-11-11T16:35:31.435Z,77.63
2018-11-11T16:38:00.143Z,77.72
2018-11-11T16:40:29.792Z,77.53
2018-11-11T16:42:58.651Z,76.49
2018-11-11T16:45:28.138Z,76.59
2018-11-11T16:47:56.543Z,76.32
2018-11-11T16:50:26.933Z,76.50
2018-11-11T16:52:56.146Z,76.45
2018-11-11T16:55:25.685Z,76.35
2018-11-11T16:57:53.833Z,76.30
2018-11-11T17:00:26.308Z,76.33
2018-11-11T17:02:55.114Z,76.33
2018-11-11T17:05:27.811Z,76.23
2018-11-11T17:07:57.059Z,76.22
2018-11-11T17:10:26.670Z,76.13
2018-11-11T17:12:55.943Z,75.53
2018-11-11T17:15:25.795Z,75.93
2018-11-11T17:17:54.010Z,75.88
2018-11-11T17:20:23.328Z,76.04
2018-11-11T17:22:52.488Z,76.07
2018-11-11T17:25:21.802Z,75.73
2018-11-11T17:27:50.000Z,75.77
2018-11-11T17:30:19.625Z,76.04
2018-11-11T17:32:48.528Z,76.09
2018-11-11T17:35:16.693Z,76.17
2018-11-11T17:37:44.899Z,75.90
2018-11-11T17:40:18.345Z,76.01
2018-11-11T17:42:47.546Z,75.28
2018-11-11T17:45:16.009Z,75.40
2018-11-11T17:47:44.936Z,75.78
2018-11-11T17:50:16.443Z,75.52
2018-11-11T17:52:44.996Z,74.77
2018-11-11T17:55:14.657Z,74.69
2018-11-11T17:57:43.259Z,74.69
2018-11-11T18:00:15.640Z,74.79
2018-11-11T18:02:44.046Z,74.58
2018-11-11T18:05:13.163Z,74.06
2018-11-11T18:07:41.538Z,73.82
2018-11-11T18:10:11.949Z,74.22
2018-11-11T18:12:40.215Z,74.36
2018-11-11T18:15:09.829Z,74.65
2018-11-11T18:17:38.417Z,74.83
2018-11-11T18:20:10.697Z,74.88
2018-11-11T18:22:38.835Z,75.18
2018-11-11T18:25:07.052Z,75.07
2018-11-11T18:27:36.579Z,74.69
2018-11-11T18:30:07.419Z,75.54
2018-11-11T18:32:35.619Z,75.97
2018-11-11T18:35:03.943Z,76.35
2018-11-11T18:37:32.106Z,76.47
2018-11-11T18:40:00.356Z,76.52
2018-11-11T18:42:28.502Z,76.82
2018-11-11T18:44:56.683Z,76.59
2018-11-11T18:47:24.866Z,76.70
2018-11-11T18:49:53.043Z,76.01
2018-11-11T18:52:21.199Z,76.40
2018-11-11T18:54:49.382Z,76.74
2018-11-11T18:57:17.702Z,76.96
2018-11-11T18:59:45.732Z,76.94
2018-11-11T19:02:13.916Z,77.13
2018-11-11T19:04:42.204Z,77.12
2018-11-11T19:07:10.379Z,77.22
2018-11-11T19:09:38.617Z,77.84
2018-11-11T19:12:06.915Z,77.79
2018-11-11T19:14:35.140Z,77.89
2018-11-11T19:17:03.373Z,78.07
2018-11-11T19:19:31.596Z,78.15
2018-11-11T19:21:59.841Z,78.26
2018-11-11T19:24:28.260Z,78.29
2018-11-11T19:26:56.603Z,78.32
2018-11-11T19:29:24.846Z,78.80
2018-11-11T19:31:53.049Z,78.77
2018-11-11T19:34:21.435Z,78.85
2018-11-11T19:36:49.822Z,78.77
2018-11-11T19:39:18.144Z,78.81
2018-11-11T19:41:46.454Z,78.96
2018-11-11T19:44:14.685Z,79.07
2018-11-11T19:46:42.939Z,79.07
2018-11-11T19:49:11.156Z,79.20
2018-11-11T19:51:39.457Z,79.70
2018-11-11T19:54:07.654Z,79.33
2018-11-11T19:56:36.174Z,79.29
2018-11-11T19:59:04.424Z,79.41
2018-11-11T20:01:32.767Z,79.73
2018-11-11T20:04:01.062Z,79.87
2018-11-11T20:06:29.277Z,79.86
2018-11-11T20:08:57.675Z,79.62
2018-11-11T20:11:25.967Z,80.02
2018-11-11T20:13:54.172Z,80.13
2018-11-11T20:16:22.377Z,79.90
2018-11-11T20:18:50.633Z,79.80
2018-11-11T20:21:19.276Z,79.93
2018-11-11T20:23:49.106Z,79.94
2018-11-11T20:26:17.340Z,79.87
2018-11-11T20:28:45.589Z,79.90
2018-11-11T20:31:13.829Z,79.97
2018-11-11T20:33:42.099Z,79.82
2018-11-11T20:36:10.351Z,79.84
2018-11-11T20:38:38.595Z,79.89
2018-11-11T20:41:06.818Z,79.94
2018-11-11T20:43:35.236Z,79.90
2018-11-11T20:46:03.721Z,80.13
2018-11-11T20:48:31.973Z,79.89
2018-11-11T20:51:00.266Z,79.73
2018-11-11T20:53:28.524Z,79.85
2018-11-11T20:55:56.840Z,79.77
2018-11-11T20:58:25.020Z,79.67
2018-11-11T21:00:53.282Z,79.61
2018-11-11T21:03:21.515Z,79.62
2018-11-11T21:05:49.763Z,79.87
2018-11-11T21:08:17.993Z,80.08
2018-11-11T21:10:46.245Z,80.10
2018-11-11T21:13:14.588Z,79.86
2018-11-11T21:15:42.851Z,80.34
2018-11-11T21:18:11.082Z,80.24
2018-11-11T21:20:39.307Z,80.20
2018-11-11T21:23:07.567Z,80.14
2018-11-11T21:25:35.901Z,80.22
2018-11-11T21:28:04.069Z,80.15
2018-11-11T21:30:32.761Z,80.32
2018-11-11T21:33:01.057Z,80.36
2018-11-11T21:35:29.276Z,80.10
2018-11-11T21:37:57.467Z,79.82
2018-11-11T21:40:26.604Z,80.06
2018-11-11T21:42:55.317Z,79.85
2018-11-11T21:45:24.475Z,79.89
2018-11-11T21:47:52.675Z,80.14
2018-11-11T21:50:24.004Z,79.96
2018-11-11T21:52:59.925Z,80.02
2018-11-11T21:55:28.099Z,80.05
2018-11-11T21:57:56.293Z,79.89
2018-11-11T22:00:24.480Z,79.86
2018-11-11T22:02:52.722Z,80.02
2018-11-11T22:05:20.877Z,79.16
2018-11-11T22:07:49.008Z,79.08
2018-11-11T22:10:17.184Z,79.02
2018-11-11T22:12:45.379Z,79.23
2018-11-11T22:15:13.552Z,79.24
2018-11-11T22:17:42.233Z,79.42
2018-11-11T22:20:11.004Z,79.35
2018-11-11T22:22:39.235Z,79.23
2018-11-11T22:25:07.415Z,79.15
2018-11-11T22:27:36.041Z,79.22
2018-11-11T22:30:04.922Z,79.22
2018-11-11T22:32:33.141Z,79.47
2018-11-11T22:35:01.315Z,79.48
2018-11-11T22:37:29.499Z,79.56
2018-11-11T22:39:57.690Z,79.23
2018-11-11T22:42:26.130Z,79.38
2018-11-11T22:44:54.271Z,79.25
2018-11-11T22:47:22.464Z,79.28
2018-11-11T22:49:50.644Z,79.02
2018-11-11T22:52:18.802Z,78.96
2018-11-11T22:54:46.991Z,79.18
2018-11-11T22:57:15.169Z,79.23
2018-11-11T22:59:43.347Z,79.34
2018-11-11T23:02:11.511Z,79.35
2018-11-11T23:04:39.673Z,79.38
2018-11-11T23:07:07.831Z,79.28
2018-11-11T23:09:36.021Z,79.24
2018-11-11T23:12:04.204Z,79.17
2018-11-11T23:14:32.367Z,79.01
2018-11-11T23:17:00.533Z,79.06
2018-11-11T23:19:28.774Z,79.14
2018-11-11T23:21:56.951Z,79.02
2018-11-11T23:24:25.120Z,79.14
2018-11-11T23:26:53.300Z,78.83
2018-11-11T23:29:21.496Z,78.68
2018-11-11T23:31:49.664Z,78.97
2018-11-11T23:34:17.835Z,78.67
2018-11-11T23:36:46.017Z,78.38
2018-11-11T23:39:14.200Z,78.46
2018-11-11T23:41:42.371Z,78.58
2018-11-11T23:44:10.603Z,78.43
2018-11-11T23:46:39.364Z,78.52
2018-11-11T23:49:08.236Z,78.74
2018-11-11T23:51:36.427Z,78.52
2018-11-11T23:54:04.623Z,78.49
2018-11-11T23:56:32.976Z,78.52
2018-11-11T23:59:01.160Z,78.51
